sensor_id;sensor_type;location;lat;lon;timestamp;pressure;altitude;pressure_sealevel;temperature;humidity
75767;BME280;64378;55.596;13.014;2023-02-28T00:00:30;103083.09;;;20.03;37.25
75767;BME280;64378;55.596;13.014;2023-02-28T00:02:56;103086.69;;;20.04;37.23
75767;BME280;64378;55.596;13.014;2023-02-28T00:05:23;103085.84;;;20.03;37.24
75767;BME280;64378;55.596;13.014;2023-02-28T00:07:49;103083.09;;;20.03;37.46
75767;BME280;64378;55.596;13.014;2023-02-28T00:10:20;103086.69;;;20.04;37.26
75767;BME280;64378;55.596;13.014;2023-02-28T00:12:47;103081.22;;;20.04;37.50
75767;BME280;64378;55.596;13.014;2023-02-28T00:15:13;103074.88;;;20.03;37.31
75767;BME280;64378;55.596;13.014;2023-02-28T00:17:38;103082.91;;;20.05;37.37
75767;BME280;64378;55.596;13.014;2023-02-28T00:20:05;103079.53;;;20.03;37.51
75767;BME280;64378;55.596;13.014;2023-02-28T00:22:36;103085.00;;;20.03;37.38
75767;BME280;64378;55.596;13.014;2023-02-28T00:25:02;103079.53;;;20.03;37.30
75767;BME280;64378;55.596;13.014;2023-02-28T00:27:29;103075.91;;;20.02;37.48
75767;BME280;64378;55.596;13.014;2023-02-28T00:29:54;103085.00;;;20.03;37.49
75767;BME280;64378;55.596;13.014;2023-02-28T00:32:20;103083.94;;;20.04;37.38
75767;BME280;64378;55.596;13.014;2023-02-28T00:34:45;103080.34;;;20.03;37.57
75767;BME280;64378;55.596;13.014;2023-02-28T00:37:11;103082.25;;;20.03;37.39
75767;BME280;64378;55.596;13.014;2023-02-28T00:39:39;103071.31;;;20.03;37.09
75767;BME280;64378;55.596;13.014;2023-02-28T00:42:06;103069.59;;;20.02;37.26
75767;BME280;64378;55.596;13.014;2023-02-28T00:44:32;103072.34;;;20.02;37.13
75767;BME280;64378;55.596;13.014;2023-02-28T00:46:58;103073.41;;;20.01;37.37
75767;BME280;64378;55.596;13.014;2023-02-28T00:49:24;103073.19;;;20.02;37.25
75767;BME280;64378;55.596;13.014;2023-02-28T00:51:50;103076.97;;;20.01;37.28
75767;BME280;64378;55.596;13.014;2023-02-28T00:54:16;103076.97;;;20.01;37.36
75767;BME280;64378;55.596;13.014;2023-02-28T00:56:42;103079.94;;;20.00;37.21
75767;BME280;64378;55.596;13.014;2023-02-28T00:59:07;103084.59;;;19.99;37.20
75767;BME280;64378;55.596;13.014;2023-02-28T01:01:33;103086.28;;;20.00;37.17
75767;BME280;64378;55.596;13.014;2023-02-28T01:03:58;103092.81;;;19.99;37.19
75767;BME280;64378;55.596;13.014;2023-02-28T01:06:23;103096.38;;;20.00;37.20
75767;BME280;64378;55.596;13.014;2023-02-28T01:08:49;103097.25;;;20.00;37.10
75767;BME280;64378;55.596;13.014;2023-02-28T01:11:16;103101.84;;;20.00;37.30
75767;BME280;64378;55.596;13.014;2023-02-28T01:13:43;103099.97;;;20.00;37.25
75767;BME280;64378;55.596;13.014;2023-02-28T01:16:09;103107.34;;;20.00;37.15
75767;BME280;64378;55.596;13.014;2023-02-28T01:18:35;103096.38;;;20.00;37.46
75767;BME280;64378;55.596;13.014;2023-02-28T01:21:09;103092.81;;;19.99;37.38
75767;BME280;64378;55.596;13.014;2023-02-28T01:23:34;103098.28;;;19.99;37.20
75767;BME280;64378;55.596;13.014;2023-02-28T01:26:07;103086.47;;;19.99;37.44
75767;BME280;64378;55.596;13.014;2023-02-28T01:28:33;103093.63;;;20.00;37.41
75767;BME280;64378;55.596;13.014;2023-02-28T01:30:58;103099.97;;;20.00;37.22
75767;BME280;64378;55.596;13.014;2023-02-28T01:33:24;103095.56;;;19.99;37.16
75767;BME280;64378;55.596;13.014;2023-02-28T01:35:57;103092.81;;;19.99;37.32
75767;BME280;64378;55.596;13.014;2023-02-28T01:38:23;103098.91;;;20.01;37.25
75767;BME280;64378;55.596;13.014;2023-02-28T01:40:48;103102.72;;;20.00;37.26
75767;BME280;64378;55.596;13.014;2023-02-28T01:45:50;103105.66;;;19.99;37.14
75767;BME280;64378;55.596;13.014;2023-02-28T01:48:15;103108.38;;;19.99;37.08
75767;BME280;64378;55.596;13.014;2023-02-28T01:50:43;103102.25;;;19.97;37.21
75767;BME280;64378;55.596;13.014;2023-02-28T01:53:15;103097.81;;;19.96;37.28
75767;BME280;64378;55.596;13.014;2023-02-28T01:55:42;103097.81;;;19.96;37.16
75767;BME280;64378;55.596;13.014;2023-02-28T01:58:10;103093.38;;;19.95;37.01
75767;BME280;64378;55.596;13.014;2023-02-28T02:00:37;103093.38;;;19.95;36.85
75767;BME280;64378;55.596;13.014;2023-02-28T02:03:09;103085.38;;;19.93;37.08
75767;BME280;64378;55.596;13.014;2023-02-28T02:05:37;103084.31;;;19.94;36.98
75767;BME280;64378;55.596;13.014;2023-02-28T02:08:05;103080.72;;;19.94;37.25
75767;BME280;64378;55.596;13.014;2023-02-28T02:11:13;103084.50;;;19.93;37.21
75767;BME280;64378;55.596;13.014;2023-02-28T02:19:00;103088.75;;;19.95;37.13
75767;BME280;64378;55.596;13.014;2023-02-28T02:40:03;103068.06;;;19.93;36.78
75767;BME280;64378;55.596;13.014;2023-02-28T02:48:04;103080.31;;;19.90;36.79
75767;BME280;64378;55.596;13.014;2023-02-28T02:50:37;103072.09;;;19.90;36.80
75767;BME280;64378;55.596;13.014;2023-02-28T02:53:05;103072.91;;;19.91;36.80
75767;BME280;64378;55.596;13.014;2023-02-28T02:55:35;103066.59;;;19.90;36.72
75767;BME280;64378;55.596;13.014;2023-02-28T02:58:05;103066.59;;;19.90;36.78
75767;BME280;64378;55.596;13.014;2023-02-28T03:00:37;103057.53;;;19.90;36.81
75767;BME280;64378;55.596;13.014;2023-02-28T03:03:04;103052.91;;;19.90;36.86
75767;BME280;64378;55.596;13.014;2023-02-28T03:06:03;103060.06;;;19.91;36.89
75767;BME280;64378;55.596;13.014;2023-02-28T03:08:34;103054.59;;;19.91;36.71
75767;BME280;64378;55.596;13.014;2023-02-28T03:11:02;103058.16;;;19.92;36.80
75767;BME280;64378;55.596;13.014;2023-02-28T03:19:45;103071.44;;;19.88;36.80
75767;BME280;64378;55.596;13.014;2023-02-28T03:22:18;103073.31;;;19.88;36.79
75767;BME280;64378;55.596;13.014;2023-02-28T03:27:29;103074.59;;;19.85;36.71
75767;BME280;64378;55.596;13.014;2023-02-28T03:32:35;103065.31;;;19.86;36.93
75767;BME280;64378;55.596;13.014;2023-02-28T03:35:18;103060.72;;;19.87;36.63
75767;BME280;64378;55.596;13.014;2023-02-28T03:37:49;103058.78;;;19.87;36.80
75767;BME280;64378;55.596;13.014;2023-02-28T03:40:25;103065.31;;;19.86;36.88
75767;BME280;64378;55.596;13.014;2023-02-28T03:42:56;103069.13;;;19.85;36.69
75767;BME280;64378;55.596;13.014;2023-02-28T03:45:35;103061.13;;;19.84;36.62
75767;BME280;64378;55.596;13.014;2023-02-28T03:48:15;103056.47;;;19.84;36.71
75767;BME280;64378;55.596;13.014;2023-02-28T03:50:45;103059.44;;;19.83;36.75
75767;BME280;64378;55.596;13.014;2023-02-28T03:53:18;103063.00;;;19.83;36.70
75767;BME280;64378;55.596;13.014;2023-02-28T03:55:52;103061.94;;;19.84;36.76
75767;BME280;64378;55.596;13.014;2023-02-28T04:01:07;103055.41;;;19.85;36.92
75767;BME280;64378;55.596;13.014;2023-02-28T04:03:34;103058.16;;;19.85;36.78
75767;BME280;64378;55.596;13.014;2023-02-28T04:06:00;103050.56;;;19.87;36.99
75767;BME280;64378;55.596;13.014;2023-02-28T04:08:26;103054.38;;;19.86;36.65
75767;BME280;64378;55.596;13.014;2023-02-28T04:10:57;103051.63;;;19.86;36.55
75767;BME280;64378;55.596;13.014;2023-02-28T04:13:25;103048.88;;;19.86;36.83
75767;BME280;64378;55.596;13.014;2023-02-28T04:15:50;103048.06;;;19.86;36.65
75767;BME280;64378;55.596;13.014;2023-02-28T04:18:15;103051.63;;;19.86;36.71
75767;BME280;64378;55.596;13.014;2023-02-28T04:20:41;103050.81;;;19.86;36.75
75767;BME280;64378;55.596;13.014;2023-02-28T04:23:06;103046.16;;;19.86;36.62
75767;BME280;64378;55.596;13.014;2023-02-28T04:25:31;103047.19;;;19.85;36.78
75767;BME280;64378;55.596;13.014;2023-02-28T04:27:57;103049.13;;;19.85;36.57
75767;BME280;64378;55.596;13.014;2023-02-28T04:30:25;103047.41;;;19.84;36.56
75767;BME280;64378;55.596;13.014;2023-02-28T04:32:50;103054.78;;;19.83;36.91
75767;BME280;64378;55.596;13.014;2023-02-28T04:35:15;103049.53;;;19.82;36.49
75767;BME280;64378;55.596;13.014;2023-02-28T04:37:41;103056.69;;;19.83;36.65
75767;BME280;64378;55.596;13.014;2023-02-28T04:40:07;103059.44;;;19.83;36.53
75767;BME280;64378;55.596;13.014;2023-02-28T04:42:33;103061.31;;;19.82;36.72
75767;BME280;64378;55.596;13.014;2023-02-28T04:45:04;103068.69;;;19.82;36.39
75767;BME280;64378;55.596;13.014;2023-02-28T04:47:30;103073.13;;;19.83;36.54
75767;BME280;64378;55.596;13.014;2023-02-28T04:49:55;103065.97;;;19.82;36.45
75767;BME280;64378;55.596;13.014;2023-02-28T04:52:20;103070.56;;;19.81;36.32
75767;BME280;64378;55.596;13.014;2023-02-28T04:54:46;103069.75;;;19.81;36.59
75767;BME280;64378;55.596;13.014;2023-02-28T04:57:11;103077.97;;;19.81;36.60
75767;BME280;64378;55.596;13.014;2023-02-28T04:59:37;103074.19;;;19.82;36.45
75767;BME280;64378;55.596;13.014;2023-02-28T05:02:02;103080.72;;;19.81;36.56
75767;BME280;64378;55.596;13.014;2023-02-28T05:04:32;103077.09;;;19.80;36.62
75767;BME280;64378;55.596;13.014;2023-02-28T05:07:00;103079.84;;;19.80;36.59
75767;BME280;64378;55.596;13.014;2023-02-28T05:09:25;103093.53;;;19.80;36.60
75767;BME280;64378;55.596;13.014;2023-02-28T05:11:51;103083.63;;;19.79;36.61
75767;BME280;64378;55.596;13.014;2023-02-28T05:14:16;103083.63;;;19.79;36.54
75767;BME280;64378;55.596;13.014;2023-02-28T05:16:42;103089.97;;;19.80;36.51
75767;BME280;64378;55.596;13.014;2023-02-28T05:19:08;103084.50;;;19.80;36.66
75767;BME280;64378;55.596;13.014;2023-02-28T05:21:35;103089.13;;;19.79;36.43
75767;BME280;64378;55.596;13.014;2023-02-28T05:24:07;103098.19;;;19.80;36.48
75767;BME280;64378;55.596;13.014;2023-02-28T05:26:36;103084.69;;;19.78;36.56
75767;BME280;64378;55.596;13.014;2023-02-28T05:29:02;103092.91;;;19.78;36.62
75767;BME280;64378;55.596;13.014;2023-02-28T05:31:27;103083.84;;;19.78;36.61
75767;BME280;64378;55.596;13.014;2023-02-28T05:33:52;103090.38;;;19.77;36.67
75767;BME280;64378;55.596;13.014;2023-02-28T05:36:18;103082.16;;;19.77;36.33
75767;BME280;64378;55.596;13.014;2023-02-28T05:38:48;103083.84;;;19.78;36.52
75767;BME280;64378;55.596;13.014;2023-02-28T05:41:14;103080.25;;;19.77;36.37
75767;BME280;64378;55.596;13.014;2023-02-28T05:43:40;103081.13;;;19.78;36.49
75767;BME280;64378;55.596;13.014;2023-02-28T05:46:08;103080.25;;;19.77;36.52
75767;BME280;64378;55.596;13.014;2023-02-28T05:48:35;103076.69;;;19.77;36.28
75767;BME280;64378;55.596;13.014;2023-02-28T05:51:02;103081.13;;;19.78;36.31
75767;BME280;64378;55.596;13.014;2023-02-28T05:53:28;103085.56;;;19.79;36.57
75767;BME280;64378;55.596;13.014;2023-02-28T05:55:54;103079.22;;;19.78;36.33
75767;BME280;64378;55.596;13.014;2023-02-28T05:58:20;103078.16;;;19.79;36.42
75767;BME280;64378;55.596;13.014;2023-02-28T06:00:46;103073.53;;;19.80;36.43
75767;BME280;64378;55.596;13.014;2023-02-28T06:03:11;103082.59;;;19.80;36.36
75767;BME280;64378;55.596;13.014;2023-02-28T06:05:37;103068.88;;;19.80;36.42
75767;BME280;64378;55.596;13.014;2023-02-28T06:08:03;103077.97;;;19.81;36.39
75767;BME280;64378;55.596;13.014;2023-02-28T06:10:29;103063.41;;;19.80;36.69
75767;BME280;64378;55.596;13.014;2023-02-28T06:12:54;103072.50;;;19.81;36.60
75767;BME280;64378;55.596;13.014;2023-02-28T06:15:20;103075.22;;;19.81;36.56
75767;BME280;64378;55.596;13.014;2023-02-28T06:17:46;103071.63;;;19.80;36.79
75767;BME280;64378;55.596;13.014;2023-02-28T06:20:12;103078.78;;;19.81;36.69
75767;BME280;64378;55.596;13.014;2023-02-28T06:22:38;103083.44;;;19.81;36.62
75767;BME280;64378;55.596;13.014;2023-02-28T06:25:05;103085.31;;;19.80;37.04
75767;BME280;64378;55.596;13.014;2023-02-28T06:27:33;103085.13;;;19.82;36.95
75767;BME280;64378;55.596;13.014;2023-02-28T06:29:59;103084.09;;;19.83;36.72
75767;BME280;64378;55.596;13.014;2023-02-28T06:32:25;103088.72;;;19.82;36.82
75767;BME280;64378;55.596;13.014;2023-02-28T06:34:50;103097.16;;;19.81;36.49
75767;BME280;64378;55.596;13.014;2023-02-28T06:37:17;103083.00;;;19.77;36.47
75767;BME280;64378;55.596;13.014;2023-02-28T06:39:42;103083.00;;;19.77;36.46
75767;BME280;64378;55.596;13.014;2023-02-28T06:42:08;103090.38;;;19.77;36.30
75767;BME280;64378;55.596;13.014;2023-02-28T06:44:33;103092.25;;;19.76;36.50
75767;BME280;64378;55.596;13.014;2023-02-28T06:47:01;103099.66;;;19.76;36.26
75767;BME280;64378;55.596;13.014;2023-02-28T06:49:29;103101.75;;;19.74;36.41
75767;BME280;64378;55.596;13.014;2023-02-28T06:51:54;103106.19;;;19.75;36.24
75767;BME280;64378;55.596;13.014;2023-02-28T06:54:20;103108.28;;;19.73;36.37
75767;BME280;64378;55.596;13.014;2023-02-28T06:56:45;103118.19;;;19.74;36.16
75767;BME280;64378;55.596;13.014;2023-02-28T06:59:12;103109.97;;;19.74;36.27
75767;BME280;64378;55.596;13.014;2023-02-28T07:01:38;103118.19;;;19.74;36.33
75767;BME280;64378;55.596;13.014;2023-02-28T07:04:04;103112.06;;;19.72;36.05
75767;BME280;64378;55.596;13.014;2023-02-28T07:06:30;103107.44;;;19.72;36.11
75767;BME280;64378;55.596;13.014;2023-02-28T07:08:56;103111.03;;;19.73;36.12
75767;BME280;64378;55.596;13.014;2023-02-28T07:11:24;103113.75;;;19.73;36.31
75767;BME280;64378;55.596;13.014;2023-02-28T07:13:51;103112.72;;;19.74;36.08
75767;BME280;64378;55.596;13.014;2023-02-28T07:16:18;103101.97;;;19.72;36.20
75767;BME280;64378;55.596;13.014;2023-02-28T07:18:43;103113.97;;;19.71;36.23
75767;BME280;64378;55.596;13.014;2023-02-28T07:21:10;103112.06;;;19.72;35.78
75767;BME280;64378;55.596;13.014;2023-02-28T07:23:36;103119.47;;;19.71;36.08
75767;BME280;64378;55.596;13.014;2023-02-28T07:26:04;103118.19;;;19.74;35.92
75767;BME280;64378;55.596;13.014;2023-02-28T07:28:29;103110.63;;;19.76;36.33
75767;BME280;64378;55.596;13.014;2023-02-28T07:30:55;103102.16;;;19.77;36.35
75767;BME280;64378;55.596;13.014;2023-02-28T07:33:20;103102.41;;;19.82;36.40
75767;BME280;64378;55.596;13.014;2023-02-28T07:35:46;103108.53;;;19.84;36.33
75767;BME280;64378;55.596;13.014;2023-02-28T07:38:11;103107.91;;;19.89;36.48
75767;BME280;64378;55.596;13.014;2023-02-28T07:40:38;103102.22;;;19.90;36.48
75767;BME280;64378;55.596;13.014;2023-02-28T07:43:04;103101.81;;;19.93;36.49
75767;BME280;64378;55.596;13.014;2023-02-28T07:45:30;103103.50;;;19.94;36.54
75767;BME280;64378;55.596;13.014;2023-02-28T07:47:59;103103.28;;;19.96;36.57
75767;BME280;64378;55.596;13.014;2023-02-28T07:50:25;103109.44;;;19.98;36.63
75767;BME280;64378;55.596;13.014;2023-02-28T07:52:50;103114.72;;;19.99;36.60
75767;BME280;64378;55.596;13.014;2023-02-28T07:55:16;103106.50;;;19.99;36.50
75767;BME280;64378;55.596;13.014;2023-02-28T07:57:42;103109.84;;;20.01;36.41
75767;BME280;64378;55.596;13.014;2023-02-28T08:00:09;103110.31;;;20.05;36.60
75767;BME280;64378;55.596;13.014;2023-02-28T08:02:35;103113.88;;;20.05;36.42
75767;BME280;64378;55.596;13.014;2023-02-28T08:05:01;103112.81;;;20.06;36.22
75767;BME280;64378;55.596;13.014;2023-02-28T08:07:26;103113.69;;;20.07;36.49
75767;BME280;64378;55.596;13.014;2023-02-28T08:09:52;103107.78;;;20.10;36.72
75767;BME280;64378;55.596;13.014;2023-02-28T08:12:17;103113.28;;;20.10;36.30
75767;BME280;64378;55.596;13.014;2023-02-28T08:14:43;103116.66;;;20.12;36.44
75767;BME280;64378;55.596;13.014;2023-02-28T08:17:09;103123.81;;;20.13;36.64
75767;BME280;64378;55.596;13.014;2023-02-28T08:19:34;103122.56;;;20.15;36.34
75767;BME280;64378;55.596;13.014;2023-02-28T08:22:00;103120.00;;;20.14;36.28
75767;BME280;64378;55.596;13.014;2023-02-28T08:24:25;103119.81;;;20.15;36.38
75767;BME280;64378;55.596;13.014;2023-02-28T08:26:51;103117.91;;;20.16;36.39
75767;BME280;64378;55.596;13.014;2023-02-28T08:29:16;103126.56;;;20.19;36.49
75767;BME280;64378;55.596;13.014;2023-02-28T08:31:42;103123.84;;;20.19;36.29
75767;BME280;64378;55.596;13.014;2023-02-28T08:34:09;103131.19;;;20.19;36.24
75767;BME280;64378;55.596;13.014;2023-02-28T08:36:36;103130.16;;;20.20;36.21
75767;BME280;64378;55.596;13.014;2023-02-28T08:39:01;103130.78;;;20.22;36.39
75767;BME280;64378;55.596;13.014;2023-02-28T08:41:27;103143.25;;;20.24;36.30
75767;BME280;64378;55.596;13.014;2023-02-28T08:43:52;103142.19;;;20.25;36.30
75767;BME280;64378;55.596;13.014;2023-02-28T08:46:19;103140.28;;;20.26;36.26
75767;BME280;64378;55.596;13.014;2023-02-28T08:48:45;103129.09;;;20.27;35.99
75767;BME280;64378;55.596;13.014;2023-02-28T08:51:16;103133.34;;;20.30;36.24
75767;BME280;64378;55.596;13.014;2023-02-28T08:53:44;103144.31;;;20.30;36.16
75767;BME280;64378;55.596;13.014;2023-02-28T08:56:12;103132.47;;;20.29;36.17
75767;BME280;64378;55.596;13.014;2023-02-28T08:58:38;103131.44;;;20.30;36.22
75767;BME280;64378;55.596;13.014;2023-02-28T09:01:12;103130.38;;;20.31;36.04
75767;BME280;64378;55.596;13.014;2023-02-28T09:03:39;103132.69;;;20.34;36.01
75767;BME280;64378;55.596;13.014;2023-02-28T09:06:06;103134.19;;;20.37;36.07
75767;BME280;64378;55.596;13.014;2023-02-28T09:08:31;103141.16;;;20.39;36.02
75767;BME280;64378;55.596;13.014;2023-02-28T09:10:58;103135.25;;;20.42;36.06
75767;BME280;64378;55.596;13.014;2023-02-28T09:13:24;103146.00;;;20.44;36.00
75767;BME280;64378;55.596;13.014;2023-02-28T09:15:50;103144.75;;;20.46;36.01
75767;BME280;64378;55.596;13.014;2023-02-28T09:18:16;103143.69;;;20.47;35.99
75767;BME280;64378;55.596;13.014;2023-02-28T09:20:42;103139.91;;;20.48;36.24
75767;BME280;64378;55.596;13.014;2023-02-28T09:23:10;103130.81;;;20.48;35.93
75767;BME280;64378;55.596;13.014;2023-02-28T09:25:35;103142.22;;;20.51;36.27
75767;BME280;64378;55.596;13.014;2023-02-28T09:28:01;103140.31;;;20.52;36.30
75767;BME280;64378;55.596;13.014;2023-02-28T09:30:27;103142.00;;;20.53;36.27
75767;BME280;64378;55.596;13.014;2023-02-28T09:32:53;103148.31;;;20.53;35.96
75767;BME280;64378;55.596;13.014;2023-02-28T09:35:23;103146.44;;;20.54;35.97
75767;BME280;64378;55.596;13.014;2023-02-28T09:37:50;103149.59;;;20.57;35.99
75767;BME280;64378;55.596;13.014;2023-02-28T09:40:20;103147.72;;;20.58;35.94
75767;BME280;64378;55.596;13.014;2023-02-28T09:42:53;103139.25;;;20.59;35.90
75767;BME280;64378;55.596;13.014;2023-02-28T09:45:23;103137.38;;;20.60;36.00
75767;BME280;64378;55.596;13.014;2023-02-28T09:47:50;103140.94;;;20.60;35.80
75767;BME280;64378;55.596;13.014;2023-02-28T09:52:53;103143.28;;;20.63;35.81
75767;BME280;64378;55.596;13.014;2023-02-28T09:55:31;103149.63;;;20.64;35.86
75767;BME280;64378;55.596;13.014;2023-02-28T09:57:59;103147.94;;;20.63;35.79
75767;BME280;64378;55.596;13.014;2023-02-28T10:00:32;103143.06;;;20.65;35.73
75767;BME280;64378;55.596;13.014;2023-02-28T10:06:09;103134.41;;;20.68;35.81
75767;BME280;64378;55.596;13.014;2023-02-28T10:09:10;103137.78;;;20.70;35.65
75767;BME280;64378;55.596;13.014;2023-02-28T10:11:40;103140.53;;;20.70;35.75
75767;BME280;64378;55.596;13.014;2023-02-28T10:14:13;103139.47;;;20.71;35.69
75767;BME280;64378;55.596;13.014;2023-02-28T10:16:46;103143.06;;;20.71;35.54
75767;BME280;64378;55.596;13.014;2023-02-28T10:19:30;103140.09;;;20.73;35.54
75767;BME280;64378;55.596;13.014;2023-02-28T10:22:04;103131.88;;;20.73;35.59
75767;BME280;64378;55.596;13.014;2023-02-28T10:24:49;103122.59;;;20.73;35.69
75767;BME280;64378;55.596;13.014;2023-02-28T10:27:19;103125.34;;;20.73;35.42
75767;BME280;64378;55.596;13.014;2023-02-28T10:29:47;103116.91;;;20.75;35.56
75767;BME280;64378;55.596;13.014;2023-02-28T10:32:18;103120.06;;;20.72;35.68
75767;BME280;64378;55.596;13.014;2023-02-28T10:37:23;103121.13;;;20.77;35.37
75767;BME280;64378;55.596;13.014;2023-02-28T10:39:48;103115.63;;;20.77;35.33
75767;BME280;64378;55.596;13.014;2023-02-28T10:42:25;103121.78;;;20.79;35.42
75767;BME280;64378;55.596;13.014;2023-02-28T10:47:42;103131.03;;;20.78;35.28
75767;BME280;64378;55.596;13.014;2023-02-28T10:50:34;103132.53;;;20.81;35.18
75767;BME280;64378;55.596;13.014;2023-02-28T10:56:14;103116.94;;;20.81;35.26
75767;BME280;64378;55.596;13.014;2023-02-28T11:01:41;103120.50;;;20.82;35.23
75767;BME280;64378;55.596;13.014;2023-02-28T11:04:37;103115.88;;;20.82;35.13
75767;BME280;64378;55.596;13.014;2023-02-28T11:07:22;103111.22;;;20.83;35.07
75767;BME280;64378;55.596;13.014;2023-02-28T11:09:50;103097.72;;;20.81;35.03
75767;BME280;64378;55.596;13.014;2023-02-28T11:12:36;103101.91;;;20.84;35.18
75767;BME280;64378;55.596;13.014;2023-02-28T11:15:24;103098.97;;;20.85;35.13
75767;BME280;64378;55.596;13.014;2023-02-28T11:20:50;103094.31;;;20.86;35.08
75767;BME280;64378;55.596;13.014;2023-02-28T11:23:17;103105.09;;;20.87;35.07
75767;BME280;64378;55.596;13.014;2023-02-28T11:25:51;103089.69;;;20.86;35.27
75767;BME280;64378;55.596;13.014;2023-02-28T11:28:36;103098.75;;;20.87;35.18
75767;BME280;64378;55.596;13.014;2023-02-28T11:33:47;103095.59;;;20.90;35.04
75767;BME280;64378;55.596;13.014;2023-02-28T11:36:20;103104.66;;;20.90;34.93
75767;BME280;64378;55.596;13.014;2023-02-28T11:38:50;103098.09;;;20.91;34.89
75767;BME280;64378;55.596;13.014;2023-02-28T11:41:31;103097.06;;;20.92;34.80
75767;BME280;64378;55.596;13.014;2023-02-28T11:46:56;103093.25;;;20.93;34.96
75767;BME280;64378;55.596;13.014;2023-02-28T11:52:53;103092.19;;;20.94;34.79
75767;BME280;64378;55.596;13.014;2023-02-28T12:10:04;103103.59;;;20.98;34.71
75767;BME280;64378;55.596;13.014;2023-02-28T12:21:11;103074.25;;;20.98;34.50
75767;BME280;64378;55.596;13.014;2023-02-28T12:26:40;103066.63;;;21.00;34.48
75767;BME280;64378;55.596;13.014;2023-02-28T12:32:05;103057.34;;;21.01;34.58
75767;BME280;64378;55.596;13.014;2023-02-28T12:34:34;103041.09;;;21.00;34.79
75767;BME280;64378;55.596;13.014;2023-02-28T12:37:06;103027.78;;;21.03;34.61
75767;BME280;64378;55.596;13.014;2023-02-28T12:39:39;103042.56;;;21.02;34.67
75767;BME280;64378;55.596;13.014;2023-02-28T12:42:13;103044.25;;;21.03;34.51
75767;BME280;64378;55.596;13.014;2023-02-28T12:44:55;103039.41;;;21.05;34.44
75767;BME280;64378;55.596;13.014;2023-02-28T12:47:22;103038.34;;;21.06;34.36
75767;BME280;64378;55.596;13.014;2023-02-28T12:49:58;103025.44;;;21.07;34.44
75767;BME280;64378;55.596;13.014;2023-02-28T12:52:34;103023.56;;;21.07;34.47
75767;BME280;64378;55.596;13.014;2023-02-28T12:55:13;103021.63;;;21.08;34.41
75767;BME280;64378;55.596;13.014;2023-02-28T12:57:50;103010.03;;;21.06;34.33
75767;BME280;64378;55.596;13.014;2023-02-28T13:00:21;103008.78;;;21.08;34.29
75767;BME280;64378;55.596;13.014;2023-02-28T13:09:16;103006.03;;;21.08;34.25
75767;BME280;64378;55.596;13.014;2023-02-28T13:11:54;103006.84;;;21.09;34.22
75767;BME280;64378;55.596;13.014;2023-02-28T13:19:33;103010.47;;;21.09;34.16
75767;BME280;64378;55.596;13.014;2023-02-28T13:21:59;103003.03;;;21.10;34.34
75767;BME280;64378;55.596;13.014;2023-02-28T13:24:44;103001.78;;;21.06;34.16
75767;BME280;64378;55.596;13.014;2023-02-28T13:27:20;103001.59;;;21.07;34.08
75767;BME280;64378;55.596;13.014;2023-02-28T13:29:51;103003.28;;;21.08;34.41
75767;BME280;64378;55.596;13.014;2023-02-28T13:32:28;103006.03;;;21.08;34.64
75767;BME280;64378;55.596;13.014;2023-02-28T13:47:42;103008.34;;;21.11;34.11
75767;BME280;64378;55.596;13.014;2023-02-28T13:55:30;103004.53;;;21.12;34.33
75767;BME280;64378;55.596;13.014;2023-02-28T14:06:26;102995.44;;;21.12;34.01
75767;BME280;64378;55.596;13.014;2023-02-28T14:08:59;102996.31;;;21.12;34.10
75767;BME280;64378;55.596;13.014;2023-02-28T14:11:38;103006.41;;;21.12;34.01
75767;BME280;64378;55.596;13.014;2023-02-28T14:14:05;102988.25;;;21.11;34.20
75767;BME280;64378;55.596;13.014;2023-02-28T14:21:43;102975.41;;;21.11;34.05
75767;BME280;64378;55.596;13.014;2023-02-28T14:24:33;102966.94;;;21.13;34.20
75767;BME280;64378;55.596;13.014;2023-02-28T14:35:39;102958.69;;;21.13;34.31
75767;BME280;64378;55.596;13.014;2023-02-28T14:38:16;102958.69;;;21.13;34.13
75767;BME280;64378;55.596;13.014;2023-02-28T14:40:44;102957.88;;;21.12;34.22
75767;BME280;64378;55.596;13.014;2023-02-28T14:43:26;102961.44;;;21.13;34.09
75767;BME280;64378;55.596;13.014;2023-02-28T14:45:57;102952.38;;;21.12;34.05
75767;BME280;64378;55.596;13.014;2023-02-28T14:48:24;102951.75;;;21.10;33.92
75767;BME280;64378;55.596;13.014;2023-02-28T14:50:56;102952.56;;;21.11;34.24
75767;BME280;64378;55.596;13.014;2023-02-28T14:53:25;102943.50;;;21.10;34.10
75767;BME280;64378;55.596;13.014;2023-02-28T14:55:52;102942.66;;;21.10;33.88
75767;BME280;64378;55.596;13.014;2023-02-28T14:58:25;102946.25;;;21.10;34.02
75767;BME280;64378;55.596;13.014;2023-02-28T15:00:53;102942.66;;;21.10;34.20
75767;BME280;64378;55.596;13.014;2023-02-28T15:05:58;102949.84;;;21.11;34.04
75767;BME280;64378;55.596;13.014;2023-02-28T15:08:25;102944.34;;;21.11;33.89
75767;BME280;64378;55.596;13.014;2023-02-28T15:10:57;102941.81;;;21.09;34.00
75767;BME280;64378;55.596;13.014;2023-02-28T15:13:33;102945.41;;;21.10;34.08
75767;BME280;64378;55.596;13.014;2023-02-28T15:16:06;102941.81;;;21.09;34.22
75767;BME280;64378;55.596;13.014;2023-02-28T15:18:51;102942.88;;;21.08;34.42
75767;BME280;64378;55.596;13.014;2023-02-28T15:21:24;102931.28;;;21.06;34.39
75767;BME280;64378;55.596;13.014;2023-02-28T15:24:00;102935.91;;;21.06;34.13
75767;BME280;64378;55.596;13.014;2023-02-28T15:26:40;102926.84;;;21.05;33.97
75767;BME280;64378;55.596;13.014;2023-02-28T15:29:16;102924.94;;;21.06;34.17